sensor_id;sensor_type;location;lat;lon;timestamp;pressure;altitude;pressure_sealevel;temperature;humidity
27840;BME280;15207;42.182;24.308;2024-02-28T00:00:22;99723.19;;;5.98;100.00
27840;BME280;15207;42.182;24.308;2024-02-28T00:02:47;99722.16;;;6.01;100.00
27840;BME280;15207;42.182;24.308;2024-02-28T00:05:13;99725.22;;;5.93;100.00
27840;BME280;15207;42.182;24.308;2024-02-28T00:07:38;99716.28;;;5.60;100.00
27840;BME280;15207;42.182;24.308;2024-02-28T00:10:04;99730.13;;;5.67;100.00
27840;BME280;15207;42.182;24.308;2024-02-28T00:12:29;99725.97;;;5.61;100.00
27840;BME280;15207;42.182;24.308;2024-02-28T00:14:55;99727.94;;;5.75;100.00
27840;BME280;15207;42.182;24.308;2024-02-28T00:17:20;99731.28;;;5.61;100.00
27840;BME280;15207;42.182;24.308;2024-02-28T00:19:46;99737.16;;;5.50;100.00
27840;BME280;15207;42.182;24.308;2024-02-28T00:22:11;99741.34;;;5.19;100.00
27840;BME280;15207;42.182;24.308;2024-02-28T00:24:36;99743.94;;;5.21;100.00
27840;BME280;15207;42.182;24.308;2024-02-28T00:27:02;99742.31;;;5.36;100.00
27840;BME280;15207;42.182;24.308;2024-02-28T00:29:27;99744.19;;;5.34;100.00
27840;BME280;15207;42.182;24.308;2024-02-28T00:31:52;99748.09;;;5.44;100.00
27840;BME280;15207;42.182;24.308;2024-02-28T00:34:18;99745.91;;;5.52;100.00
27840;BME280;15207;42.182;24.308;2024-02-28T00:36:43;99746.69;;;5.54;100.00
27840;BME280;15207;42.182;24.308;2024-02-28T00:39:10;99739.81;;;5.68;100.00
27840;BME280;15207;42.182;24.308;2024-02-28T00:41:36;99751.53;;;5.64;100.00
27840;BME280;15207;42.182;24.308;2024-02-28T00:44:02;99751.78;;;5.59;100.00
27840;BME280;15207;42.182;24.308;2024-02-28T00:46:28;99745.50;;;5.60;100.00
27840;BME280;15207;42.182;24.308;2024-02-28T00:48:53;99751.88;;;5.40;100.00
27840;BME280;15207;42.182;24.308;2024-02-28T00:51:19;99764.34;;;5.20;100.00
27840;BME280;15207;42.182;24.308;2024-02-28T00:53:44;99760.34;;;5.29;100.00
27840;BME280;15207;42.182;24.308;2024-02-28T00:56:09;99762.94;;;5.31;100.00
27840;BME280;15207;42.182;24.308;2024-02-28T00:58:35;99763.66;;;5.34;100.00
27840;BME280;15207;42.182;24.308;2024-02-28T01:01:01;99764.72;;;5.30;100.00
27840;BME280;15207;42.182;24.308;2024-02-28T01:03:26;99761.84;;;5.35;100.00
27840;BME280;15207;42.182;24.308;2024-02-28T01:05:51;99764.19;;;5.41;100.00
27840;BME280;15207;42.182;24.308;2024-02-28T01:08:17;99772.00;;;5.26;100.00
27840;BME280;15207;42.182;24.308;2024-02-28T01:10:43;99767.00;;;5.20;100.00
27840;BME280;15207;42.182;24.308;2024-02-28T01:13:09;99772.06;;;5.25;100.00
27840;BME280;15207;42.182;24.308;2024-02-28T01:15:34;99766.63;;;5.09;100.00
27840;BME280;15207;42.182;24.308;2024-02-28T01:18:00;99761.25;;;5.10;100.00
27840;BME280;15207;42.182;24.308;2024-02-28T01:20:25;99765.97;;;5.23;99.13
27840;BME280;15207;42.182;24.308;2024-02-28T01:22:50;99773.16;;;5.21;98.60
27840;BME280;15207;42.182;24.308;2024-02-28T01:25:16;99770.47;;;4.84;100.00
27840;BME280;15207;42.182;24.308;2024-02-28T01:27:41;99770.22;;;4.71;100.00
27840;BME280;15207;42.182;24.308;2024-02-28T01:30:07;99776.78;;;4.81;100.00
27840;BME280;15207;42.182;24.308;2024-02-28T01:32:32;99775.16;;;4.98;100.00
27840;BME280;15207;42.182;24.308;2024-02-28T01:34:57;99775.91;;;5.00;100.00
27840;BME280;15207;42.182;24.308;2024-02-28T01:37:23;99771.75;;;5.13;99.77
27840;BME280;15207;42.182;24.308;2024-02-28T01:39:49;99763.59;;;5.16;98.59
27840;BME280;15207;42.182;24.308;2024-02-28T01:42:14;99765.09;;;5.05;99.18
27840;BME280;15207;42.182;24.308;2024-02-28T01:44:45;99765.59;;;4.94;98.51
27840;BME280;15207;42.182;24.308;2024-02-28T01:47:11;99765.34;;;4.42;100.00
27840;BME280;15207;42.182;24.308;2024-02-28T01:49:37;99779.97;;;4.51;100.00
27840;BME280;15207;42.182;24.308;2024-02-28T01:52:03;99770.06;;;4.35;100.00
27840;BME280;15207;42.182;24.308;2024-02-28T01:54:29;99772.66;;;4.37;100.00
27840;BME280;15207;42.182;24.308;2024-02-28T01:56:56;99762.63;;;4.25;100.00
27840;BME280;15207;42.182;24.308;2024-02-28T01:59:23;99776.22;;;4.17;100.00
27840;BME280;15207;42.182;24.308;2024-02-28T02:01:50;99778.00;;;4.35;100.00
27840;BME280;15207;42.182;24.308;2024-02-28T02:04:16;99786.84;;;4.36;100.00
27840;BME280;15207;42.182;24.308;2024-02-28T02:06:42;99781.47;;;4.38;100.00
27840;BME280;15207;42.182;24.308;2024-02-28T02:09:09;99792.28;;;4.33;100.00
27840;BME280;15207;42.182;24.308;2024-02-28T02:11:34;99793.31;;;4.49;100.00
27840;BME280;15207;42.182;24.308;2024-02-28T02:14:00;99796.75;;;4.52;100.00
27840;BME280;15207;42.182;24.308;2024-02-28T02:16:26;99803.84;;;4.51;100.00
27840;BME280;15207;42.182;24.308;2024-02-28T02:18:52;99798.03;;;4.62;100.00
27840;BME280;15207;42.182;24.308;2024-02-28T02:21:20;99801.69;;;4.59;100.00
27840;BME280;15207;42.182;24.308;2024-02-28T02:23:47;99799.81;;;4.23;100.00
27840;BME280;15207;42.182;24.308;2024-02-28T02:26:13;99815.38;;;4.50;100.00
27840;BME280;15207;42.182;24.308;2024-02-28T02:28:38;99817.38;;;4.45;100.00
27840;BME280;15207;42.182;24.308;2024-02-28T02:31:04;99821.00;;;4.23;100.00
27840;BME280;15207;42.182;24.308;2024-02-28T02:33:29;99819.50;;;3.96;100.00
27840;BME280;15207;42.182;24.308;2024-02-28T02:35:54;99806.56;;;4.09;100.00
27840;BME280;15207;42.182;24.308;2024-02-28T02:38:20;99811.47;;;4.19;100.00
27840;BME280;15207;42.182;24.308;2024-02-28T02:40:50;99807.81;;;4.21;100.00
27840;BME280;15207;42.182;24.308;2024-02-28T02:43:15;99809.44;;;4.05;100.00
27840;BME280;15207;42.182;24.308;2024-02-28T02:45:40;99814.47;;;4.11;100.00
27840;BME280;15207;42.182;24.308;2024-02-28T02:48:06;99807.44;;;4.10;100.00
27840;BME280;15207;42.182;24.308;2024-02-28T02:50:31;99806.31;;;3.95;100.00
27840;BME280;15207;42.182;24.308;2024-02-28T02:52:57;99805.59;;;3.91;100.00
27840;BME280;15207;42.182;24.308;2024-02-28T02:55:22;99809.09;;;4.13;100.00
27840;BME280;15207;42.182;24.308;2024-02-28T02:57:47;99815.19;;;4.15;100.00
27840;BME280;15207;42.182;24.308;2024-02-28T03:00:13;99813.91;;;4.23;100.00
27840;BME280;15207;42.182;24.308;2024-02-28T03:02:38;99814.56;;;4.29;100.00
27840;BME280;15207;42.182;24.308;2024-02-28T03:05:05;99817.59;;;4.40;100.00
27840;BME280;15207;42.182;24.308;2024-02-28T03:07:31;99812.38;;;4.58;100.00
27840;BME280;15207;42.182;24.308;2024-02-28T03:09:57;99809.88;;;4.55;100.00
27840;BME280;15207;42.182;24.308;2024-02-28T03:12:22;99815.09;;;4.56;100.00
27840;BME280;15207;42.182;24.308;2024-02-28T03:14:48;99810.53;;;4.20;100.00
27840;BME280;15207;42.182;24.308;2024-02-28T03:17:13;99818.38;;;4.02;100.00
27840;BME280;15207;42.182;24.308;2024-02-28T03:19:41;99812.53;;;4.15;100.00
27840;BME280;15207;42.182;24.308;2024-02-28T03:22:06;99832.09;;;3.70;100.00
27840;BME280;15207;42.182;24.308;2024-02-28T03:24:32;99828.44;;;3.94;100.00
27840;BME280;15207;42.182;24.308;2024-02-28T03:27:00;99826.13;;;4.07;100.00
27840;BME280;15207;42.182;24.308;2024-02-28T03:29:25;99824.06;;;4.14;100.00
27840;BME280;15207;42.182;24.308;2024-02-28T03:31:50;99823.84;;;4.18;100.00
27840;BME280;15207;42.182;24.308;2024-02-28T03:34:16;99815.78;;;4.21;100.00
27840;BME280;15207;42.182;24.308;2024-02-28T03:36:41;99823.69;;;4.02;100.00
27840;BME280;15207;42.182;24.308;2024-02-28T03:39:06;99819.72;;;3.92;100.00
27840;BME280;15207;42.182;24.308;2024-02-28T03:41:32;99831.03;;;3.95;100.00
27840;BME280;15207;42.182;24.308;2024-02-28T03:43:57;99825.84;;;3.92;100.00
27840;BME280;15207;42.182;24.308;2024-02-28T03:46:22;99835.19;;;4.01;100.00
27840;BME280;15207;42.182;24.308;2024-02-28T03:48:48;99825.66;;;4.18;100.00
27840;BME280;15207;42.182;24.308;2024-02-28T03:51:13;99832.09;;;4.12;100.00
27840;BME280;15207;42.182;24.308;2024-02-28T03:53:40;99842.91;;;4.07;100.00
27840;BME280;15207;42.182;24.308;2024-02-28T03:56:06;99837.09;;;4.18;100.00
27840;BME280;15207;42.182;24.308;2024-02-28T03:58:31;99837.69;;;4.25;100.00
27840;BME280;15207;42.182;24.308;2024-02-28T04:00:56;99848.91;;;4.32;100.00
27840;BME280;15207;42.182;24.308;2024-02-28T04:03:21;99845.31;;;4.33;100.00
27840;BME280;15207;42.182;24.308;2024-02-28T04:05:47;99839.66;;;4.41;100.00
27840;BME280;15207;42.182;24.308;2024-02-28T04:08:12;99837.91;;;4.41;100.00
27840;BME280;15207;42.182;24.308;2024-02-28T04:10:38;99845.63;;;4.06;100.00
27840;BME280;15207;42.182;24.308;2024-02-28T04:13:03;99843.41;;;4.16;100.00
27840;BME280;15207;42.182;24.308;2024-02-28T04:15:30;99842.41;;;4.18;100.00
27840;BME280;15207;42.182;24.308;2024-02-28T04:17:55;99840.56;;;4.20;100.00
27840;BME280;15207;42.182;24.308;2024-02-28T04:20:21;99844.88;;;4.23;100.00
27840;BME280;15207;42.182;24.308;2024-02-28T04:22:46;99841.56;;;4.18;100.00
27840;BME280;15207;42.182;24.308;2024-02-28T04:25:11;99829.38;;;4.14;100.00
27840;BME280;15207;42.182;24.308;2024-02-28T04:27:37;99838.75;;;4.21;100.00
27840;BME280;15207;42.182;24.308;2024-02-28T04:30:04;99824.38;;;4.27;100.00
27840;BME280;15207;42.182;24.308;2024-02-28T04:32:29;99831.47;;;4.26;100.00
27840;BME280;15207;42.182;24.308;2024-02-28T04:34:55;99832.53;;;4.43;100.00
27840;BME280;15207;42.182;24.308;2024-02-28T04:37:21;99837.78;;;4.23;100.00
27840;BME280;15207;42.182;24.308;2024-02-28T04:39:46;99833.94;;;4.31;100.00
27840;BME280;15207;42.182;24.308;2024-02-28T04:42:13;99837.44;;;4.31;100.00
27840;BME280;15207;42.182;24.308;2024-02-28T04:44:38;99832.94;;;4.33;100.00
27840;BME280;15207;42.182;24.308;2024-02-28T04:47:04;99838.72;;;4.42;100.00
27840;BME280;15207;42.182;24.308;2024-02-28T04:49:30;99829.88;;;4.43;100.00
27840;BME280;15207;42.182;24.308;2024-02-28T04:51:55;99830.97;;;4.18;100.00
27840;BME280;15207;42.182;24.308;2024-02-28T04:54:20;99829.47;;;4.31;100.00
27840;BME280;15207;42.182;24.308;2024-02-28T04:56:46;99829.69;;;4.27;100.00
27840;BME280;15207;42.182;24.308;2024-02-28T04:59:12;99838.25;;;4.13;100.00
27840;BME280;15207;42.182;24.308;2024-02-28T05:01:38;99834.34;;;4.01;100.00
27840;BME280;15207;42.182;24.308;2024-02-28T05:04:08;99838.84;;;3.99;100.00
27840;BME280;15207;42.182;24.308;2024-02-28T05:06:33;99836.97;;;4.21;100.00
27840;BME280;15207;42.182;24.308;2024-02-28T05:08:59;99844.22;;;4.18;100.00
27840;BME280;15207;42.182;24.308;2024-02-28T05:11:24;99851.09;;;4.01;100.00
27840;BME280;15207;42.182;24.308;2024-02-28T05:13:50;99855.16;;;3.89;100.00
27840;BME280;15207;42.182;24.308;2024-02-28T05:16:15;99851.97;;;3.81;100.00
27840;BME280;15207;42.182;24.308;2024-02-28T05:18:41;99857.31;;;3.79;100.00
27840;BME280;15207;42.182;24.308;2024-02-28T05:21:07;99860.19;;;3.75;100.00
27840;BME280;15207;42.182;24.308;2024-02-28T05:23:32;99859.03;;;3.80;100.00
27840;BME280;15207;42.182;24.308;2024-02-28T05:25:58;99859.38;;;3.93;100.00
27840;BME280;15207;42.182;24.308;2024-02-28T05:28:29;99865.88;;;4.07;100.00
27840;BME280;15207;42.182;24.308;2024-02-28T05:30:54;99863.63;;;4.18;100.00
27840;BME280;15207;42.182;24.308;2024-02-28T05:33:19;99871.19;;;4.28;100.00
27840;BME280;15207;42.182;24.308;2024-02-28T05:35:45;99871.72;;;4.15;100.00
27840;BME280;15207;42.182;24.308;2024-02-28T05:38:10;99871.16;;;4.48;100.00
27840;BME280;15207;42.182;24.308;2024-02-28T05:40:35;99867.66;;;4.48;100.00
27840;BME280;15207;42.182;24.308;2024-02-28T05:43:01;99870.19;;;4.70;100.00
27840;BME280;15207;42.182;24.308;2024-02-28T05:45:27;99879.28;;;4.45;100.00
27840;BME280;15207;42.182;24.308;2024-02-28T05:47:52;99884.22;;;4.12;100.00
27840;BME280;15207;42.182;24.308;2024-02-28T05:50:18;99881.94;;;4.25;100.00
27840;BME280;15207;42.182;24.308;2024-02-28T05:52:43;99894.00;;;4.32;100.00
27840;BME280;15207;42.182;24.308;2024-02-28T05:55:08;99888.94;;;4.46;100.00
27840;BME280;15207;42.182;24.308;2024-02-28T05:57:34;99894.22;;;4.67;100.00
27840;BME280;15207;42.182;24.308;2024-02-28T05:59:59;99902.75;;;4.74;100.00
27840;BME280;15207;42.182;24.308;2024-02-28T06:02:25;99904.66;;;4.91;100.00
27840;BME280;15207;42.182;24.308;2024-02-28T06:04:50;99910.53;;;4.58;100.00
27840;BME280;15207;42.182;24.308;2024-02-28T06:07:16;99912.69;;;4.89;100.00
27840;BME280;15207;42.182;24.308;2024-02-28T06:09:41;99917.00;;;4.92;100.00
27840;BME280;15207;42.182;24.308;2024-02-28T06:12:06;99910.13;;;5.07;100.00
27840;BME280;15207;42.182;24.308;2024-02-28T06:14:32;99919.88;;;5.26;100.00
27840;BME280;15207;42.182;24.308;2024-02-28T06:16:57;99911.78;;;5.47;100.00
27840;BME280;15207;42.182;24.308;2024-02-28T06:19:22;99911.63;;;5.69;100.00
27840;BME280;15207;42.182;24.308;2024-02-28T06:21:48;99917.38;;;5.60;100.00
27840;BME280;15207;42.182;24.308;2024-02-28T06:24:13;99922.75;;;5.77;100.00
27840;BME280;15207;42.182;24.308;2024-02-28T06:26:39;99928.50;;;5.68;100.00
27840;BME280;15207;42.182;24.308;2024-02-28T06:29:06;99928.59;;;6.03;100.00
27840;BME280;15207;42.182;24.308;2024-02-28T06:31:32;99919.09;;;5.98;100.00
27840;BME280;15207;42.182;24.308;2024-02-28T06:33:58;99924.75;;;6.27;100.00
27840;BME280;15207;42.182;24.308;2024-02-28T06:36:23;99924.75;;;6.27;100.00
27840;BME280;15207;42.182;24.308;2024-02-28T06:38:49;99928.38;;;6.26;100.00
27840;BME280;15207;42.182;24.308;2024-02-28T06:41:14;99922.47;;;6.54;100.00
27840;BME280;15207;42.182;24.308;2024-02-28T06:43:39;99920.72;;;6.71;100.00
27840;BME280;15207;42.182;24.308;2024-02-28T06:46:05;99925.84;;;6.58;100.00
27840;BME280;15207;42.182;24.308;2024-02-28T06:48:30;99930.03;;;6.62;100.00
27840;BME280;15207;42.182;24.308;2024-02-28T06:50:56;99922.69;;;6.67;100.00
27840;BME280;15207;42.182;24.308;2024-02-28T06:53:23;99937.47;;;7.07;100.00
27840;BME280;15207;42.182;24.308;2024-02-28T06:55:48;99940.16;;;7.39;100.00
27840;BME280;15207;42.182;24.308;2024-02-28T06:58:14;99944.59;;;7.06;100.00
27840;BME280;15207;42.182;24.308;2024-02-28T07:00:40;99937.31;;;7.42;100.00
27840;BME280;15207;42.182;24.308;2024-02-28T07:03:05;99942.06;;;7.53;99.96
27840;BME280;15207;42.182;24.308;2024-02-28T07:05:32;99943.09;;;7.50;99.49
27840;BME280;15207;42.182;24.308;2024-02-28T07:07:58;99946.31;;;7.88;98.83
27840;BME280;15207;42.182;24.308;2024-02-28T07:10:24;99938.44;;;8.17;97.30
27840;BME280;15207;42.182;24.308;2024-02-28T07:12:49;99942.75;;;8.34;95.21
27840;BME280;15207;42.182;24.308;2024-02-28T07:15:14;99943.41;;;8.54;95.46
27840;BME280;15207;42.182;24.308;2024-02-28T07:17:40;99944.75;;;8.76;94.93
27840;BME280;15207;42.182;24.308;2024-02-28T07:20:06;99947.91;;;8.82;94.04
27840;BME280;15207;42.182;24.308;2024-02-28T07:22:32;99928.16;;;8.99;93.69
27840;BME280;15207;42.182;24.308;2024-02-28T07:24:57;99933.44;;;9.01;93.87
27840;BME280;15207;42.182;24.308;2024-02-28T07:27:23;99938.09;;;9.26;92.90
27840;BME280;15207;42.182;24.308;2024-02-28T07:29:49;99936.81;;;9.47;91.71
27840;BME280;15207;42.182;24.308;2024-02-28T07:32:15;99935.19;;;9.44;91.95
27840;BME280;15207;42.182;24.308;2024-02-28T07:34:40;99942.66;;;9.24;92.76
27840;BME280;15207;42.182;24.308;2024-02-28T07:37:05;99943.78;;;9.35;92.76
27840;BME280;15207;42.182;24.308;2024-02-28T07:39:30;99935.38;;;9.41;93.22
27840;BME280;15207;42.182;24.308;2024-02-28T07:41:56;99930.63;;;9.46;93.66
27840;BME280;15207;42.182;24.308;2024-02-28T07:44:21;99929.72;;;9.60;93.33
27840;BME280;15207;42.182;24.308;2024-02-28T07:46:47;99931.06;;;9.53;92.96
27840;BME280;15207;42.182;24.308;2024-02-28T07:49:13;99931.09;;;9.66;93.27
27840;BME280;15207;42.182;24.308;2024-02-28T07:51:38;99930.47;;;9.90;92.95
27840;BME280;15207;42.182;24.308;2024-02-28T07:54:05;99926.94;;;9.89;92.31
27840;BME280;15207;42.182;24.308;2024-02-28T07:56:31;99928.09;;;9.85;92.85
27840;BME280;15207;42.182;24.308;2024-02-28T07:58:57;99914.38;;;10.17;90.60
27840;BME280;15207;42.182;24.308;2024-02-28T08:01:22;99924.56;;;9.85;92.76
27840;BME280;15207;42.182;24.308;2024-02-28T08:03:48;99917.78;;;10.07;92.26
27840;BME280;15207;42.182;24.308;2024-02-28T08:06:13;99928.06;;;10.13;91.36
27840;BME280;15207;42.182;24.308;2024-02-28T08:08:38;99920.75;;;10.55;89.39
27840;BME280;15207;42.182;24.308;2024-02-28T08:11:04;99920.56;;;10.84;87.82
27840;BME280;15207;42.182;24.308;2024-02-28T08:13:30;99910.69;;;10.85;86.42
27840;BME280;15207;42.182;24.308;2024-02-28T08:15:58;99913.69;;;10.80;88.93
27840;BME280;15207;42.182;24.308;2024-02-28T08:18:23;99917.84;;;11.10;87.28
27840;BME280;15207;42.182;24.308;2024-02-28T08:20:48;99912.34;;;11.25;86.56
27840;BME280;15207;42.182;24.308;2024-02-28T08:23:15;99911.25;;;11.28;86.61
27840;BME280;15207;42.182;24.308;2024-02-28T08:25:40;99905.41;;;11.47;86.14
27840;BME280;15207;42.182;24.308;2024-02-28T08:28:06;99900.75;;;11.62;84.11
27840;BME280;15207;42.182;24.308;2024-02-28T08:30:31;99909.25;;;11.80;82.92
27840;BME280;15207;42.182;24.308;2024-02-28T08:32:59;99902.19;;;11.42;82.99
27840;BME280;15207;42.182;24.308;2024-02-28T08:35:24;99907.69;;;11.40;84.38
27840;BME280;15207;42.182;24.308;2024-02-28T08:37:50;99912.72;;;11.45;84.76
27840;BME280;15207;42.182;24.308;2024-02-28T08:40:15;99911.13;;;11.42;82.84
27840;BME280;15207;42.182;24.308;2024-02-28T08:42:41;99906.06;;;11.50;82.54
27840;BME280;15207;42.182;24.308;2024-02-28T08:45:07;99910.28;;;11.90;81.44
27840;BME280;15207;42.182;24.308;2024-02-28T08:47:33;99905.06;;;12.25;79.97
27840;BME280;15207;42.182;24.308;2024-02-28T08:49:58;99914.22;;;12.34;78.94
27840;BME280;15207;42.182;24.308;2024-02-28T08:52:25;99902.44;;;12.48;78.11
27840;BME280;15207;42.182;24.308;2024-02-28T08:54:50;99913.13;;;12.36;77.21
27840;BME280;15207;42.182;24.308;2024-02-28T08:57:15;99908.53;;;12.38;78.30
27840;BME280;15207;42.182;24.308;2024-02-28T08:59:41;99903.56;;;13.02;75.00
27840;BME280;15207;42.182;24.308;2024-02-28T09:02:07;99903.81;;;12.88;72.95
27840;BME280;15207;42.182;24.308;2024-02-28T09:04:33;99907.50;;;12.75;74.74
27840;BME280;15207;42.182;24.308;2024-02-28T09:06:58;99898.31;;;12.78;74.63
27840;BME280;15207;42.182;24.308;2024-02-28T09:09:23;99894.66;;;12.90;73.96
27840;BME280;15207;42.182;24.308;2024-02-28T09:11:49;99893.81;;;13.01;72.76
27840;BME280;15207;42.182;24.308;2024-02-28T09:14:14;99895.25;;;12.82;73.20
27840;BME280;15207;42.182;24.308;2024-02-28T09:16:39;99893.56;;;12.81;73.82
27840;BME280;15207;42.182;24.308;2024-02-28T09:19:05;99891.00;;;13.03;73.18
27840;BME280;15207;42.182;24.308;2024-02-28T09:21:30;99896.09;;;13.06;72.88
27840;BME280;15207;42.182;24.308;2024-02-28T09:23:56;99895.63;;;13.23;71.72
27840;BME280;15207;42.182;24.308;2024-02-28T09:26:22;99880.59;;;13.21;71.47
27840;BME280;15207;42.182;24.308;2024-02-28T09:28:47;99878.09;;;13.41;71.87
27840;BME280;15207;42.182;24.308;2024-02-28T09:31:13;99886.66;;;13.57;71.07
27840;BME280;15207;42.182;24.308;2024-02-28T09:33:40;99891.50;;;13.64;70.25
27840;BME280;15207;42.182;24.308;2024-02-28T09:36:06;99888.47;;;13.89;69.05
27840;BME280;15207;42.182;24.308;2024-02-28T09:38:31;99888.28;;;13.81;68.29
27840;BME280;15207;42.182;24.308;2024-02-28T09:40:59;99883.44;;;13.64;70.82
27840;BME280;15207;42.182;24.308;2024-02-28T09:43:29;99883.44;;;13.96;68.20
27840;BME280;15207;42.182;24.308;2024-02-28T09:46:01;99884.25;;;14.08;67.45
27840;BME280;15207;42.182;24.308;2024-02-28T09:48:29;99883.66;;;14.26;67.02
27840;BME280;15207;42.182;24.308;2024-02-28T09:50:56;99883.00;;;14.34;65.74
27840;BME280;15207;42.182;24.308;2024-02-28T09:53:22;99879.78;;;14.40;65.12
27840;BME280;15207;42.182;24.308;2024-02-28T09:55:49;99871.53;;;14.63;64.09
27840;BME280;15207;42.182;24.308;2024-02-28T09:58:15;99869.16;;;15.01;62.02
27840;BME280;15207;42.182;24.308;2024-02-28T10:00:41;99863.72;;;14.81;61.05
27840;BME280;15207;42.182;24.308;2024-02-28T10:03:13;99860.59;;;14.86;61.16
27840;BME280;15207;42.182;24.308;2024-02-28T10:05:39;99858.38;;;14.70;63.00
27840;BME280;15207;42.182;24.308;2024-02-28T10:08:05;99861.63;;;14.94;61.80
27840;BME280;15207;42.182;24.308;2024-02-28T10:10:31;99854.78;;;14.90;60.36
27840;BME280;15207;42.182;24.308;2024-02-28T10:12:57;99853.22;;;14.88;62.17
27840;BME280;15207;42.182;24.308;2024-02-28T10:15:26;99846.63;;;15.02;61.72
27840;BME280;15207;42.182;24.308;2024-02-28T10:17:51;99843.88;;;14.92;60.55
27840;BME280;15207;42.182;24.308;2024-02-28T10:20:17;99839.91;;;14.86;61.16
27840;BME280;15207;42.182;24.308;2024-02-28T10:22:42;99830.25;;;14.62;62.29
27840;BME280;15207;42.182;24.308;2024-02-28T10:25:08;99833.06;;;14.82;63.01
27840;BME280;15207;42.182;24.308;2024-02-28T10:27:34;99830.69;;;14.99;61.34
27840;BME280;15207;42.182;24.308;2024-02-28T10:30:00;99823.66;;;15.17;61.09
27840;BME280;15207;42.182;24.308;2024-02-28T10:32:32;99813.00;;;15.16;60.26
27840;BME280;15207;42.182;24.308;2024-02-28T10:35:01;99806.47;;;15.09;60.16
27840;BME280;15207;42.182;24.308;2024-02-28T10:37:28;99808.56;;;15.05;60.38
27840;BME280;15207;42.182;24.308;2024-02-28T10:39:56;99805.59;;;15.08;60.32
27840;BME280;15207;42.182;24.308;2024-02-28T10:42:22;99800.47;;;15.05;60.06
27840;BME280;15207;42.182;24.308;2024-02-28T10:44:50;99807.72;;;15.04;59.32
27840;BME280;15207;42.182;24.308;2024-02-28T10:47:17;99803.47;;;15.12;59.56
27840;BME280;15207;42.182;24.308;2024-02-28T10:49:43;99797.91;;;14.93;60.07
27840;BME280;15207;42.182;24.308;2024-02-28T10:52:10;99796.16;;;14.83;60.98
27840;BME280;15207;42.182;24.308;2024-02-28T10:54:39;99789.69;;;14.64;61.79
27840;BME280;15207;42.182;24.308;2024-02-28T10:57:12;99794.94;;;14.34;62.24
27840;BME280;15207;42.182;24.308;2024-02-28T10:59:37;99792.94;;;14.05;64.73
27840;BME280;15207;42.182;24.308;2024-02-28T11:02:04;99782.00;;;14.28;63.63
27840;BME280;15207;42.182;24.308;2024-02-28T11:04:30;99785.41;;;14.30;63.64
27840;BME280;15207;42.182;24.308;2024-02-28T11:06:56;99778.41;;;14.18;64.62
27840;BME280;15207;42.182;24.308;2024-02-28T11:09:22;99772.56;;;14.34;64.14
27840;BME280;15207;42.182;24.308;2024-02-28T11:11:49;99777.97;;;14.44;63.71
27840;BME280;15207;42.182;24.308;2024-02-28T11:14:16;99775.47;;;13.99;64.87
27840;BME280;15207;42.182;24.308;2024-02-28T11:16:41;99763.97;;;14.19;64.65
27840;BME280;15207;42.182;24.308;2024-02-28T11:19:18;99743.97;;;14.21;64.63
27840;BME280;15207;42.182;24.308;2024-02-28T11:21:44;99746.41;;;14.24;64.49
27840;BME280;15207;42.182;24.308;2024-02-28T11:24:12;99746.34;;;14.46;64.64
27840;BME280;15207;42.182;24.308;2024-02-28T11:26:38;99738.63;;;14.62;63.23
27840;BME280;15207;42.182;24.308;2024-02-28T11:29:03;99745.97;;;14.60;63.34
27840;BME280;15207;42.182;24.308;2024-02-28T11:31:29;99737.13;;;14.48;64.02
27840;BME280;15207;42.182;24.308;2024-02-28T11:33:54;99742.25;;;14.51;63.26
27840;BME280;15207;42.182;24.308;2024-02-28T11:36:19;99739.88;;;14.58;64.16
27840;BME280;15207;42.182;24.308;2024-02-28T11:38:45;99743.66;;;14.77;62.35
27840;BME280;15207;42.182;24.308;2024-02-28T11:41:11;99729.34;;;14.45;63.32
27840;BME280;15207;42.182;24.308;2024-02-28T11:43:36;99729.28;;;14.66;62.17
27840;BME280;15207;42.182;24.308;2024-02-28T11:46:08;99731.78;;;14.58;61.86
27840;BME280;15207;42.182;24.308;2024-02-28T11:48:33;99728.28;;;14.67;62.72
27840;BME280;15207;42.182;24.308;2024-02-28T11:50:59;99730.09;;;15.08;61.60
27840;BME280;15207;42.182;24.308;2024-02-28T11:53:25;99718.56;;;15.06;60.57
27840;BME280;15207;42.182;24.308;2024-02-28T11:55:52;99719.44;;;15.06;60.12
27840;BME280;15207;42.182;24.308;2024-02-28T11:58:17;99719.69;;;14.84;60.47
27840;BME280;15207;42.182;24.308;2024-02-28T12:00:50;99708.47;;;14.88;60.83
27840;BME280;15207;42.182;24.308;2024-02-28T12:03:25;99712.75;;;14.81;61.07
27840;BME280;15207;42.182;24.308;2024-02-28T12:05:52;99712.91;;;14.99;61.25
27840;BME280;15207;42.182;24.308;2024-02-28T12:08:18;99706.38;;;15.12;60.04
27840;BME280;15207;42.182;24.308;2024-02-28T12:10:45;99702.97;;;15.19;60.27
27840;BME280;15207;42.182;24.308;2024-02-28T12:13:10;99705.09;;;15.26;60.53
27840;BME280;15207;42.182;24.308;2024-02-28T12:15:39;99703.69;;;15.22;59.63
27840;BME280;15207;42.182;24.308;2024-02-28T12:18:09;99691.59;;;15.36;60.74
27840;BME280;15207;42.182;24.308;2024-02-28T12:20:35;99686.06;;;15.27;60.30
27840;BME280;15207;42.182;24.308;2024-02-28T12:23:05;99687.50;;;15.12;61.12
27840;BME280;15207;42.182;24.308;2024-02-28T12:25:31;99681.81;;;15.15;61.48
27840;BME280;15207;42.182;24.308;2024-02-28T12:27:56;99683.06;;;15.40;60.36
27840;BME280;15207;42.182;24.308;2024-02-28T12:30:22;99682.09;;;15.41;60.24
27840;BME280;15207;42.182;24.308;2024-02-28T12:32:47;99670.81;;;15.56;59.38
27840;BME280;15207;42.182;24.308;2024-02-28T12:35:13;99675.97;;;15.49;59.24
27840;BME280;15207;42.182;24.308;2024-02-28T12:37:38;99669.56;;;15.40;59.17
27840;BME280;15207;42.182;24.308;2024-02-28T12:40:04;99660.94;;;15.17;60.07
27840;BME280;15207;42.182;24.308;2024-02-28T12:42:31;99663.94;;;15.14;61.33